Hauptseite
METAR-TAF:

METAR-TAF

Flughäfen :

Sofia, Bulgarien

Flughafen Sofia

Breite: 42-39N, Länge: 023-23E, Höhe: 586 m

Beobachtung

Neuester Wetterbericht von vor 11 Minuten, um 02:30 UTC
Wind 10 kt aus West
Temperatur 16°C
Luftfeuchtigkeit 77%
Luftdruck 1011 hPa
Sichtweite 10 km oder mehr
keine Wolken unter 1500 m und keine Kumulonimbus oder Gewitterwolken

METAR: LBSF 280230Z 28010KT CAVOK 16/12 Q1011 NOSIG

Zeit: 05:41 (02:41 UTC)

Prognose

Neuester Wetterbericht von vor 3 Stunden und 41 Minuten, um 23:00 UTC
Gültige Prognose vom 28 um 00 UTC bis 28 um 24 UTC
Wind 14 kt aus West
Sichtweite 10 km oder mehr
Aufgelockert bewölkt in der Höhe von 4000 ft
Aufgelockert bewölkt in der Höhe von 6000 ft
Zeitweise
vom 28 um 09 UTC bis 28 um 16 UTC
Wind 14 kt aus West, Böen bis zu 26 kt

TAF: LBSF 272300Z 2800/2824 27014KT 9999 SCT040 SCT060 TEMPO 2809/2816 27014G26KT

Wetterbeobachtungen und Prognosen von mehr als 4000 Flughäfen (METAR und TAF Bericht).

Die verfügbaren Stationen werden durch gelbe und rote Markierungen auf der Karte dargestellt.

Führen Sie die Maus auf sie, um den Namen der Station zu sehen.

Darauf klicken, um die Beobachtung von Wetterbeobachtungen und Prognosen zu sehen.

Um die Karte zu ändern : klicken Sie auf den grünen Tasten mit einem schwarzen Kreuz Zum Vergrößern, auf den grünen Button mit einem Gedankenstrich zu verkleinern, oder auf die grünen Pfeile für benachbarte Karten.


METAR-TAF: